Flight Track Log - Related Links

Times and Time Zones

All times are in EDT time to prevent confusion due to time zone crossing. See the GTI37 flight status page for this flight to view local times or setup timezone preferences in your user account.

Time Position Orientation Groundspeed Altitude Reporting Facility
EDT Latitude Longitude Course Direction KTS MPH feet Rate Location/Type
Thu 06:34:13 AM 25.8033 -80.3161 265° West 169 194 1,100  Level Miami Center
Thu 06:35:26 AM 25.7972 -80.4014 265° West 271 312 3,000 2,357 Climbing Miami Center
Thu 06:36:33 AM 25.7825 -80.4864 259° West 264 304 6,600 3,248 Climbing Miami Center
Thu 06:37:15 AM 25.7300 -80.5008 194° South 283 326 8,900 3,143 Climbing Miami Center
Thu 06:37:57 AM 25.6833 -80.4442 132° Southeast 320 368 11,000 3,049 Climbing Miami Center
Thu 06:38:16 AM 25.6692 -80.4275 133° Southeast 319 367 12,000 1,800 Climbing Miami Center
Thu 06:38:57 AM 25.6267 -80.3733 131° Southeast 361 415 12,800 1,842 Climbing Miami Center
Thu 06:39:57 AM 25.5472 -80.2811 134° Southeast 380 437 15,100 2,550 Climbing Miami Center
Thu 06:40:57 AM 25.4639 -80.1822 133° Southeast 416 479 17,900 2,678 Climbing Miami Center
Thu 06:41:58 AM 25.3764 -80.0808 134° Southeast 441 507 20,500 2,600 Climbing Miami Center
Thu 06:42:57 AM 25.2825 -79.9797 136° Southeast 459 528 23,100 2,218 Climbing Miami Center
Thu 06:43:57 AM 25.1858 -79.9061 145° Southeast 470 541 24,900 1,950 Climbing Miami Center
Thu 06:44:57 AM 25.0706 -79.8253 148° Southeast 477 549 27,000 2,000 Climbing Miami Center
Thu 06:45:57 AM 24.9531 -79.7422 147° Southeast 491 565 28,900 2,200 Climbing Miami Center
Thu 06:46:57 AM 24.8397 -79.6594 146° Southeast 496 571 31,400 2,300 Climbing Miami Center
Thu 06:47:57 AM 24.7222 -79.5767 147° Southeast 496 571 33,500 1,900 Climbing Miami Center
Thu 06:48:57 AM 24.6086 -79.4989 148° Southeast 490 564 35,200 1,500 Climbing Miami Center
Thu 06:49:57 AM 24.4992 -79.4189 146° Southeast 485 558 36,500 850 Climbing Miami Center
Thu 06:50:57 AM 24.3878 -79.3411 148° Southeast 480 552 36,900 198 Climbing Miami Center
Thu 06:51:58 AM 24.2761 -79.2661 149° Southeast 480 552 36,900 50 Level Miami Center
Thu 06:52:57 AM 24.1497 -79.2022 155° Southeast 469 540 37,000 50 Climbing Miami Center
Thu 06:53:57 AM 24.0292 -79.1522 159° South 460 529 37,000  Level Miami Center
Thu 06:55:00 AM 23.9233 -79.0648 138° Southeast  Level Estimated
Thu 07:02:00 AM 23.2436 -78.4393 143° Southeast  Level FlightAware Approximate
Thu 07:03:00 AM 23.1424 -78.3571 143° Southeast  Level FlightAware Approximate
Thu 07:04:00 AM 23.0411 -78.2751 143° Southeast  Level FlightAware Approximate
Thu 07:05:00 AM 22.9397 -78.1933 143° Southeast  Level FlightAware Approximate
Thu 07:06:00 AM 22.8384 -78.1115 143° Southeast  Level FlightAware Approximate
Thu 07:07:00 AM 22.7369 -78.0299 143° Southeast  Level FlightAware Approximate
Thu 07:08:00 AM 22.6355 -77.9484 143° Southeast  Level FlightAware Approximate
Thu 07:09:00 AM 22.5340 -77.8670 143° Southeast  Level FlightAware Approximate
Thu 07:10:00 AM 22.4324 -77.7857 144° Southeast  Level FlightAware Approximate
Thu 07:11:00 AM 22.3308 -77.7046 144° Southeast  Level FlightAware Approximate
Thu 07:12:00 AM 22.2292 -77.6236 144° Southeast  Level FlightAware Approximate
Thu 07:13:00 AM 22.1275 -77.5426 144° Southeast  Level FlightAware Approximate
Thu 07:14:00 AM 22.0258 -77.4618 144° Southeast  Level FlightAware Approximate
Thu 07:15:00 AM 21.9241 -77.3812 144° Southeast  Level FlightAware Approximate
Thu 07:16:00 AM 21.8223 -77.3006 144° Southeast  Level FlightAware Approximate
Thu 07:17:00 AM 21.7205 -77.2201 144° Southeast  Level FlightAware Approximate
Thu 07:18:00 AM 21.6186 -77.1398 144° Southeast  Level FlightAware Approximate
Thu 07:19:00 AM 21.5167 -77.0596 144° Southeast  Level FlightAware Approximate
Thu 07:20:00 AM 21.4146 -76.9798 144° Southeast  Level FlightAware Approximate
Thu 07:21:00 AM 21.3123 -76.9002 144° Southeast  Level FlightAware Approximate
Thu 07:22:00 AM 21.2100 -76.8207 144° Southeast  Level FlightAware Approximate
Thu 07:23:00 AM 21.1077 -76.7414 144° Southeast  Level FlightAware Approximate
Thu 07:24:00 AM 21.0053 -76.6621 144° Southeast  Level FlightAware Approximate
Thu 07:25:00 AM 20.9029 -76.5830 144° Southeast  Level FlightAware Approximate
Thu 07:26:00 AM 20.8004 -76.5039 144° Southeast  Level FlightAware Approximate
Thu 07:27:00 AM 20.6979 -76.4250 144° Southeast  Level FlightAware Approximate
Thu 07:28:00 AM 20.5954 -76.3462 144° Southeast  Level FlightAware Approximate
Thu 07:29:00 AM 20.4928 -76.2675 144° Southeast  Level FlightAware Approximate
Thu 07:30:00 AM 20.3903 -76.1889 144° Southeast  Level FlightAware Approximate
Thu 07:31:00 AM 20.2876 -76.1104 144° Southeast  Level FlightAware Approximate
Thu 07:32:00 AM 20.1850 -76.0320 144° Southeast  Level FlightAware Approximate
Thu 07:33:00 AM 20.0823 -75.9537 144° Southeast  Level FlightAware Approximate
Thu 07:34:00 AM 19.9795 -75.8755 144° Southeast  Level FlightAware Approximate
Thu 07:35:00 AM 19.8768 -75.7974 144° Southeast  Level FlightAware Approximate
Thu 07:36:00 AM 19.7740 -75.7195 144° Southeast  Level FlightAware Approximate
Thu 07:37:00 AM 19.6711 -75.6416 145° Southeast  Level FlightAware Approximate
Thu 07:38:00 AM 19.5683 -75.5638 145° Southeast  Level FlightAware Approximate
Thu 07:39:00 AM 19.4654 -75.4861 145° Southeast  Level FlightAware Approximate
Thu 07:40:00 AM 19.3624 -75.4085 145° Southeast  Level FlightAware Approximate
Thu 07:41:00 AM 19.2595 -75.3310 145° Southeast  Level FlightAware Approximate
Thu 07:42:00 AM 19.1565 -75.2536 145° Southeast  Level FlightAware Approximate
Thu 07:43:00 AM 19.0534 -75.1763 145° Southeast  Level FlightAware Approximate
Thu 07:44:00 AM 18.9503 -75.0991 145° Southeast  Level FlightAware Approximate
Thu 07:45:00 AM 18.8472 -75.0220 145° Southeast  Level FlightAware Approximate
Thu 07:46:00 AM 18.7441 -74.9450 145° Southeast  Level FlightAware Approximate
Thu 07:47:00 AM 18.6410 -74.8681 145° Southeast  Level FlightAware Approximate
Thu 07:48:00 AM 18.5380 -74.7908 144° Southeast  Level FlightAware Approximate
Thu 07:49:00 AM 18.4352 -74.7135 145° Southeast  Level FlightAware Approximate
Thu 07:50:00 AM 18.3323 -74.6364 145° Southeast  Level FlightAware Approximate
Thu 07:51:00 AM 18.2294 -74.5592 145° Southeast  Level FlightAware Approximate
Thu 07:52:00 AM 18.1265 -74.4822 145° Southeast  Level FlightAware Approximate
Thu 07:53:00 AM 18.0235 -74.4054 145° Southeast  Level FlightAware Approximate
Thu 07:54:00 AM 17.9204 -74.3286 145° Southeast  Level FlightAware Approximate
Thu 07:55:00 AM 17.8174 -74.2519 145° Southeast  Level FlightAware Approximate
Thu 07:56:00 AM 17.7142 -74.1753 145° Southeast  Level FlightAware Approximate
Thu 07:57:00 AM 17.6111 -74.0988 145° Southeast  Level FlightAware Approximate
Thu 07:58:00 AM 17.5079 -74.0224 145° Southeast  Level FlightAware Approximate
Thu 07:59:00 AM 17.4048 -73.9461 145° Southeast  Level FlightAware Approximate
Thu 08:00:00 AM 17.3015 -73.8698 145° Southeast  Level FlightAware Approximate
Thu 08:01:00 AM 17.1983 -73.7937 145° Southeast  Level FlightAware Approximate
Thu 08:02:00 AM 17.0950 -73.7176 145° Southeast  Level FlightAware Approximate
Thu 08:03:00 AM 16.9917 -73.6416 145° Southeast  Level FlightAware Approximate
Thu 08:04:00 AM 16.8883 -73.5657 145° Southeast  Level FlightAware Approximate
Thu 08:05:00 AM 16.7850 -73.4899 145° Southeast  Level FlightAware Approximate
Thu 08:06:00 AM 16.6816 -73.4142 145° Southeast  Level FlightAware Approximate
Thu 08:07:00 AM 16.5783 -73.3384 145° Southeast  Level FlightAware Approximate
Thu 08:08:00 AM 16.4751 -73.2623 145° Southeast  Level FlightAware Approximate
Thu 08:09:00 AM 16.3720 -73.1864 145° Southeast  Level FlightAware Approximate
Thu 08:10:00 AM 16.2688 -73.1105 145° Southeast  Level FlightAware Approximate
Thu 08:11:00 AM 16.1656 -73.0348 145° Southeast  Level FlightAware Approximate
Thu 08:12:00 AM 16.0623 -72.9591 145° Southeast  Level FlightAware Approximate
Thu 08:13:00 AM 15.9590 -72.8834 145° Southeast  Level FlightAware Approximate
Thu 08:14:00 AM 15.8557 -72.8079 145° Southeast  Level FlightAware Approximate
Thu 08:15:00 AM 15.7524 -72.7324 145° Southeast  Level FlightAware Approximate
Thu 08:16:00 AM 15.6490 -72.6570 145° Southeast  Level FlightAware Approximate
Thu 08:17:00 AM 15.5456 -72.5817 145° Southeast  Level FlightAware Approximate
Thu 08:18:00 AM 15.4422 -72.5065 145° Southeast  Level FlightAware Approximate
Thu 08:19:00 AM 15.3385 -72.4317 145° Southeast  Level FlightAware Approximate
Thu 08:20:00 AM 15.2348 -72.3570 145° Southeast  Level FlightAware Approximate
Thu 08:21:00 AM 15.1311 -72.2824 145° Southeast  Level FlightAware Approximate
Thu 08:22:00 AM 15.0273 -72.2078 145° Southeast  Level FlightAware Approximate
Thu 08:23:00 AM 14.9235 -72.1333 145° Southeast  Level FlightAware Approximate
Thu 08:24:00 AM 14.8197 -72.0589 145° Southeast  Level FlightAware Approximate
Thu 08:25:00 AM 14.7158 -71.9846 145° Southeast  Level FlightAware Approximate
Thu 08:26:00 AM 14.6119 -71.9103 145° Southeast  Level FlightAware Approximate
Thu 08:27:00 AM 14.5080 -71.8362 145° Southeast  Level FlightAware Approximate
Thu 08:28:00 AM 14.4041 -71.7620 145° Southeast  Level FlightAware Approximate
Thu 08:29:00 AM 14.3002 -71.6880 145° Southeast  Level FlightAware Approximate
Thu 08:30:00 AM 14.1962 -71.6140 145° Southeast  Level FlightAware Approximate
Thu 08:31:00 AM 14.0922 -71.5401 145° Southeast  Level FlightAware Approximate
Thu 08:32:00 AM 13.9882 -71.4662 145° Southeast  Level FlightAware Approximate
Thu 08:33:00 AM 13.8842 -71.3925 145° Southeast  Level FlightAware Approximate
Thu 08:34:00 AM 13.7802 -71.3188 145° Southeast  Level FlightAware Approximate
Thu 08:35:00 AM 13.6761 -71.2451 145° Southeast  Level FlightAware Approximate
Thu 08:36:00 AM 13.5720 -71.1715 146° Southeast  Level FlightAware Approximate
Thu 08:37:00 AM 13.4678 -71.0980 146° Southeast  Level FlightAware Approximate
Thu 08:38:00 AM 13.3637 -71.0246 146° Southeast  Level FlightAware Approximate
Thu 08:39:00 AM 13.2596 -70.9512 146° Southeast  Level FlightAware Approximate
Thu 08:40:00 AM 13.1554 -70.8778 146° Southeast  Level FlightAware Approximate
Thu 08:41:00 AM 13.0512 -70.8046 146° Southeast  Level FlightAware Approximate
Thu 08:42:00 AM 12.9469 -70.7314 146° Southeast  Level FlightAware Approximate
Thu 08:43:00 AM 12.8427 -70.6582 146° Southeast  Level FlightAware Approximate
Thu 08:44:00 AM 12.7384 -70.5851 146° Southeast  Level FlightAware Approximate
Thu 08:45:00 AM 12.6342 -70.5121 146° Southeast  Level FlightAware Approximate
Thu 08:46:00 AM 12.5299 -70.4391 146° Southeast  Level FlightAware Approximate
Thu 08:47:00 AM 12.4255 -70.3663 146° Southeast  Level FlightAware Approximate
Thu 08:48:00 AM 12.3209 -70.2938 146° Southeast  Level FlightAware Approximate
Thu 08:49:00 AM 12.2163 -70.2213 146° Southeast  Level FlightAware Approximate
Thu 08:50:00 AM 12.1117 -70.1489 146° Southeast  Level FlightAware Approximate
Thu 08:51:00 AM 12.0071 -70.0766 146° Southeast  Level FlightAware Approximate
Thu 08:52:00 AM 11.9025 -70.0043 146° Southeast  Level FlightAware Approximate
Thu 08:53:00 AM 11.7978 -69.9321 146° Southeast  Level FlightAware Approximate
Thu 08:54:00 AM 11.6931 -69.8599 146° Southeast  Level FlightAware Approximate
Thu 08:55:00 AM 11.5885 -69.7878 146° Southeast  Level FlightAware Approximate
Thu 08:56:00 AM 11.4838 -69.7157 146° Southeast  Level FlightAware Approximate
Thu 08:57:00 AM 11.3790 -69.6437 146° Southeast  Level FlightAware Approximate
Thu 08:58:00 AM 11.2743 -69.5717 146° Southeast  Level FlightAware Approximate
Thu 08:59:00 AM 11.1695 -69.4998 146° Southeast  Level FlightAware Approximate
Thu 09:00:00 AM 11.0647 -69.4279 146° Southeast  Level FlightAware Approximate
Thu 09:01:00 AM 10.9599 -69.3561 146° Southeast  Level FlightAware Approximate
Thu 09:02:00 AM 10.8551 -69.2844 146° Southeast  Level FlightAware Approximate
Thu 09:03:00 AM 10.7503 -69.2126 146° Southeast  Level FlightAware Approximate
Thu 09:04:00 AM 10.6454 -69.1410 146° Southeast  Level FlightAware Approximate
Thu 09:05:00 AM 10.5406 -69.0694 146° Southeast  Level FlightAware Approximate
Thu 09:06:00 AM 10.4357 -68.9978 146° Southeast  Level FlightAware Approximate
Thu 09:07:00 AM 10.3308 -68.9263 146° Southeast  Level FlightAware Approximate
Thu 09:08:00 AM 10.2261 -68.8546 146° Southeast  Level FlightAware Approximate
Thu 09:09:00 AM 10.1213 -68.7830 146° Southeast  Level FlightAware Approximate
Thu 09:10:00 AM 10.0165 -68.7113 146° Southeast  Level FlightAware Approximate
Thu 09:11:00 AM 9.9117 -68.6398 146° Southeast  Level FlightAware Approximate
Thu 09:12:00 AM 9.8069 -68.5682 146° Southeast  Level FlightAware Approximate
Thu 09:13:00 AM 9.7021 -68.4967 146° Southeast  Level FlightAware Approximate
Thu 09:14:00 AM 9.5973 -68.4253 146° Southeast  Level FlightAware Approximate
Thu 09:15:00 AM 9.4924 -68.3539 146° Southeast  Level FlightAware Approximate
Thu 09:16:00 AM 9.3876 -68.2825 146° Southeast  Level FlightAware Approximate
Thu 09:17:00 AM 9.2827 -68.2112 146° Southeast  Level FlightAware Approximate
Thu 09:18:00 AM 9.1778 -68.1400 146° Southeast  Level FlightAware Approximate
Thu 09:19:00 AM 9.0729 -68.0687 146° Southeast  Level FlightAware Approximate
Thu 09:20:00 AM 8.9680 -67.9976 146° Southeast  Level FlightAware Approximate
Thu 09:21:00 AM 8.8631 -67.9264 146° Southeast  Level FlightAware Approximate
Thu 09:22:00 AM 8.7581 -67.8553 146° Southeast  Level FlightAware Approximate
Thu 09:23:00 AM 8.6532 -67.7842 146° Southeast  Level FlightAware Approximate
Thu 09:24:00 AM 8.5482 -67.7132 146° Southeast  Level FlightAware Approximate
Thu 09:25:00 AM 8.4432 -67.6423 146° Southeast  Level FlightAware Approximate
Thu 09:26:00 AM 8.3382 -67.5713 146° Southeast  Level FlightAware Approximate
Thu 09:27:00 AM 8.2332 -67.5004 146° Southeast  Level FlightAware Approximate
Thu 09:28:00 AM 8.1282 -67.4295 146° Southeast  Level FlightAware Approximate
Thu 09:29:00 AM 8.0232 -67.3587 146° Southeast  Level FlightAware Approximate
Thu 09:30:00 AM 7.9181 -67.2879 146° Southeast  Level FlightAware Approximate
Thu 09:31:00 AM 7.8130 -67.2171 146° Southeast  Level FlightAware Approximate
Thu 09:32:00 AM 7.7080 -67.1464 146° Southeast  Level FlightAware Approximate
Thu 09:33:00 AM 7.6029 -67.0757 146° Southeast  Level FlightAware Approximate
Thu 09:34:00 AM 7.4978 -67.0051 146° Southeast  Level FlightAware Approximate
Thu 09:35:00 AM 7.3927 -66.9344 146° Southeast  Level FlightAware Approximate
Thu 09:36:00 AM 7.2876 -66.8638 146° Southeast  Level FlightAware Approximate
Thu 09:37:00 AM 7.1824 -66.7933 146° Southeast  Level FlightAware Approximate
Thu 09:38:00 AM 7.0773 -66.7228 146° Southeast  Level FlightAware Approximate
Thu 09:39:00 AM 6.9722 -66.6523 146° Southeast  Level FlightAware Approximate
Thu 09:40:00 AM 6.8670 -66.5818 146° Southeast  Level FlightAware Approximate
Thu 09:41:00 AM 6.7618 -66.5114 146° Southeast  Level FlightAware Approximate
Thu 09:42:00 AM 6.6567 -66.4410 146° Southeast  Level FlightAware Approximate
Thu 09:43:00 AM 6.5515 -66.3706 146° Southeast  Level FlightAware Approximate
Thu 09:44:00 AM 6.4463 -66.3003 146° Southeast  Level FlightAware Approximate
Thu 09:45:00 AM 6.3411 -66.2300 146° Southeast  Level FlightAware Approximate
Thu 09:46:00 AM 6.2358 -66.1597 146° Southeast  Level FlightAware Approximate
Thu 09:47:00 AM 6.1306 -66.0894 146° Southeast  Level FlightAware Approximate
Thu 09:48:00 AM 6.0254 -66.0192 146° Southeast  Level FlightAware Approximate
Thu 09:49:00 AM 5.9201 -65.9490 146° Southeast  Level FlightAware Approximate
Thu 09:50:00 AM 5.8149 -65.8789 146° Southeast  Level FlightAware Approximate
Thu 09:51:00 AM 5.7096 -65.8087 146° Southeast  Level FlightAware Approximate
Thu 09:52:00 AM 5.6043 -65.7386 146° Southeast  Level FlightAware Approximate
Thu 09:53:00 AM 5.4991 -65.6685 146° Southeast  Level FlightAware Approximate
Thu 09:54:00 AM 5.3938 -65.5984 146° Southeast  Level FlightAware Approximate
Thu 09:55:00 AM 5.2885 -65.5284 146° Southeast  Level FlightAware Approximate
Thu 09:56:00 AM 5.1832 -65.4584 146° Southeast  Level FlightAware Approximate
Thu 09:57:00 AM 5.0779 -65.3884 146° Southeast  Level FlightAware Approximate
Thu 09:58:00 AM 4.9725 -65.3184 146° Southeast  Level FlightAware Approximate
Thu 09:59:00 AM 4.8672 -65.2485 147° Southeast  Level FlightAware Approximate
Thu 10:00:00 AM 4.7619 -65.1785 147° Southeast  Level FlightAware Approximate
Thu 10:01:00 AM 4.6565 -65.1086 147° Southeast  Level FlightAware Approximate
Thu 10:02:00 AM 4.5512 -65.0387 147° Southeast  Level FlightAware Approximate
Thu 10:03:00 AM 4.4458 -64.9688 147° Southeast  Level FlightAware Approximate
Thu 10:04:00 AM 4.3405 -64.8990 147° Southeast  Level FlightAware Approximate
Thu 10:05:00 AM 4.2351 -64.8292 147° Southeast  Level FlightAware Approximate
Thu 10:06:00 AM 4.1297 -64.7594 147° Southeast  Level FlightAware Approximate
Thu 10:07:00 AM 4.0244 -64.6896 147° Southeast  Level FlightAware Approximate
Thu 10:08:00 AM 3.9190 -64.6198 147° Southeast  Level FlightAware Approximate
Thu 10:09:00 AM 3.8136 -64.5500 147° Southeast  Level FlightAware Approximate
Thu 10:10:00 AM 3.7082 -64.4803 147° Southeast  Level FlightAware Approximate
Thu 10:11:00 AM 3.6028 -64.4106 147° Southeast  Level FlightAware Approximate
Thu 10:12:00 AM 3.4974 -64.3409 147° Southeast  Level FlightAware Approximate
Thu 10:13:00 AM 3.3920 -64.2712 147° Southeast  Level FlightAware Approximate
Thu 10:14:00 AM 3.2866 -64.2015 147° Southeast  Level FlightAware Approximate
Thu 10:15:00 AM 3.1811 -64.1319 147° Southeast  Level FlightAware Approximate
Thu 10:16:00 AM 3.0757 -64.0622 147° Southeast  Level FlightAware Approximate
Thu 10:17:00 AM 2.9703 -63.9926 147° Southeast  Level FlightAware Approximate
Thu 10:18:00 AM 2.8648 -63.9230 147° Southeast  Level FlightAware Approximate
Thu 10:19:00 AM 2.7594 -63.8534 147° Southeast  Level FlightAware Approximate
Thu 10:20:00 AM 2.6539 -63.7838 147° Southeast  Level FlightAware Approximate
Thu 10:21:00 AM 2.5485 -63.7142 147° Southeast  Level FlightAware Approximate
Thu 10:22:00 AM 2.4430 -63.6446 147° Southeast  Level FlightAware Approximate
Thu 10:23:00 AM 2.3376 -63.5751 147° Southeast  Level FlightAware Approximate
Thu 10:24:00 AM 2.2321 -63.5055 147° Southeast  Level FlightAware Approximate
Thu 10:25:00 AM 2.1267 -63.4360 147° Southeast  Level FlightAware Approximate
Thu 10:26:00 AM 2.0212 -63.3665 147° Southeast  Level FlightAware Approximate
Thu 10:27:00 AM 1.9157 -63.2969 147° Southeast  Level FlightAware Approximate
Thu 10:28:00 AM 1.8103 -63.2274 147° Southeast  Level FlightAware Approximate
Thu 10:29:00 AM 1.7048 -63.1579 147° Southeast  Level FlightAware Approximate
Thu 10:30:00 AM 1.5993 -63.0884 147° Southeast  Level FlightAware Approximate
Thu 10:31:00 AM 1.4938 -63.0190 147° Southeast  Level FlightAware Approximate
Thu 10:32:00 AM 1.3884 -62.9495 147° Southeast  Level FlightAware Approximate
Thu 10:33:00 AM 1.2829 -62.8800 147° Southeast  Level FlightAware Approximate
Thu 10:34:00 AM 1.1774 -62.8105 147° Southeast  Level FlightAware Approximate
Thu 10:35:00 AM 1.0719 -62.7411 147° Southeast  Level FlightAware Approximate
Thu 10:36:00 AM 0.9664 -62.6716 147° Southeast  Level FlightAware Approximate
Thu 10:37:00 AM 0.8609 -62.6022 147° Southeast  Level FlightAware Approximate
Thu 10:38:00 AM 0.7554 -62.5327 147° Southeast  Level FlightAware Approximate
Thu 10:39:00 AM 0.6499 -62.4633 147° Southeast  Level FlightAware Approximate
Thu 10:40:00 AM 0.5444 -62.3938 147° Southeast  Level FlightAware Approximate
Thu 10:41:00 AM 0.4390 -62.3244 147° Southeast  Level FlightAware Approximate
Thu 10:42:00 AM 0.3335 -62.2550 147° Southeast  Level FlightAware Approximate
Thu 10:43:00 AM 0.2280 -62.1855 147° Southeast  Level FlightAware Approximate
Thu 10:44:00 AM 0.1225 -62.1161 147° Southeast  Level FlightAware Approximate
Thu 10:45:00 AM 0.0170 -62.0466 147° Southeast  Level FlightAware Approximate
Thu 10:46:00 AM -0.0885 -61.9772 147° Southeast  Level FlightAware Approximate
Thu 10:47:00 AM -0.1940 -61.9078 147° Southeast  Level FlightAware Approximate
Thu 10:48:00 AM -0.2995 -61.8383 147° Southeast  Level FlightAware Approximate
Thu 10:49:00 AM -0.4050 -61.7689 147° Southeast  Level FlightAware Approximate
Thu 10:50:00 AM -0.5105 -61.6995 147° Southeast  Level FlightAware Approximate
Thu 10:51:00 AM -0.6160 -61.6300 147° Southeast  Level FlightAware Approximate
Thu 10:52:00 AM -0.7215 -61.5606 147° Southeast  Level FlightAware Approximate
Thu 10:53:00 AM -0.8270 -61.4911 147° Southeast  Level FlightAware Approximate
Thu 10:54:00 AM -0.9325 -61.4217 147° Southeast  Level FlightAware Approximate
Thu 10:55:00 AM -1.0380 -61.3522 147° Southeast  Level FlightAware Approximate
Thu 10:56:00 AM -1.1454 -61.2861 149° Southeast  Level FlightAware Approximate
Thu 10:57:00 AM -1.2511 -61.2169 147° Southeast  Level FlightAware Approximate
Thu 10:58:00 AM -1.3572 -61.1483 147° Southeast  Level FlightAware Approximate
Thu 10:59:00 AM -1.4632 -61.0797 147° Southeast  Level FlightAware Approximate
Thu 11:00:00 AM -1.5603 -61.0001 148° Southeast  Level FlightAware Approximate
Thu 11:01:00 AM -1.6679 -60.9339 148° Southeast  Level FlightAware Approximate
Thu 11:02:00 AM -1.7743 -60.8660 144° Southeast  Level FlightAware Approximate
Thu 11:03:00 AM -1.8771 -60.7926 144° Southeast  Level FlightAware Approximate
Thu 11:04:00 AM -1.9799 -60.7191 144° Southeast  Level FlightAware Approximate
Thu 11:05:00 AM -2.0863 -60.6511 148° Southeast  Level FlightAware Approximate
Thu 11:06:00 AM -2.1929 -60.5833 148° Southeast  Level FlightAware Approximate
Thu 11:07:00 AM -2.2995 -60.5155 148° Southeast  Level FlightAware Approximate
Thu 11:08:00 AM -2.4053 -60.4465 146° Southeast  Level FlightAware Approximate
Thu 11:09:00 AM -2.5105 -60.3766 148° Southeast  Level FlightAware Approximate
Thu 11:10:00 AM -2.6171 -60.3088 148° Southeast  Level FlightAware Approximate
Thu 11:11:00 AM -2.7239 -60.2413 148° Southeast  Level FlightAware Approximate
Thu 11:12:00 AM -2.8302 -60.1732 143° Southeast  Level FlightAware Approximate
Thu 11:13:00 AM -2.9313 -60.0974 143° Southeast  Level FlightAware Approximate
Thu 11:14:00 AM -3.0167 -60.0500 153° Southeast  Level FlightAware Approximate
Thu 11:15:00 AM -3.0386 -60.0497 153° Southeast  Level Estimated
Thu 11:16:00 AM -3.0386 -60.0497 153° Southeast  Level Estimated
Thu 11:17:00 AM -3.0386 -60.0497 153° Southeast  Level Estimated
Thu 11:18:00 AM -3.0386 -60.0497 153° Southeast  Level Estimated
Thu 11:19:00 AM -3.0386 -60.0497 153° Southeast  Level Estimated
Thu 11:20:00 AM -3.0386 -60.0497 153° Southeast  Level Estimated
Thu 11:21:00 AM -3.0386 -60.0497 153° Southeast  Level Estimated
Thu 11:22:00 AM -3.0386 -60.0497 153° Southeast  Level Estimated
Thu 11:23:00 AM -3.0386 -60.0497 153° Southeast  Level Estimated
Thu 11:24:00 AM -3.0386 -60.0497 153° Southeast  Level Estimated
Thu 11:25:00 AM -3.0386 -60.0497 153° Southeast  Level Estimated
Thu 11:26:00 AM -3.0386 -60.0497 153° Southeast  Level Estimated

Login

Don't have an account? Register now (free) for customized features, flight alerts, and more!